Time;durP1;ratioP1;P1;durP2;ratioP2;P2;SDS_P1;SDS_P2;PMS_P1;PMS_P2;Temp;Humidity;BMP_temperature;BMP_pressure;BME280_temperature;BME280_humidity;BME280_pressure;Samples;Min_cycle;Max_cycle;Signal;HPM_P1;HPM_P2
2021/11/08 00:00:29;;;;;;;;;25.75;22.25;;;;;-144.76;100.00;60493.00;5066129;28;45405;-88
2021/11/08 00:02:58;;;;;;;;;29.75;26.75;;;;;-144.76;100.00;60493.00;5072161;28;45257;-91
2021/11/08 00:05:24;;;;;;;;;24.50;24.25;;;;;-144.76;100.00;60493.00;5073726;28;45907;-91
2021/11/08 00:07:54;;;;;;;;;32.25;28.25;;;;;-144.76;100.00;60493.00;5056090;28;45301;-90
2021/11/08 00:10:27;;;;;;;;;31.75;29.25;;;;;-144.76;100.00;60493.00;5074094;28;45108;-91
2021/11/08 00:12:52;;;;;;;;;33.25;28.25;;;;;-144.76;100.00;60493.00;5072549;28;44984;-91
2021/11/08 00:15:20;;;;;;;;;31.25;30.00;;;;;-144.76;100.00;60493.00;5073026;28;47261;-89
2021/11/08 00:17:58;;;;;;;;;29.25;28.50;;;;;-144.76;100.00;60493.00;5072204;28;45094;-91
2021/11/08 00:20:40;;;;;;;;;27.50;26.75;;;;;-144.76;100.00;60493.00;5047415;28;45397;-90
2021/11/08 00:23:08;;;;;;;;;33.50;31.25;;;;;-144.76;100.00;60493.00;5074462;28;44916;-90
2021/11/08 00:25:34;;;;;;;;;33.00;32.00;;;;;-144.76;100.00;60493.00;5055395;28;46096;-90
2021/11/08 00:28:00;;;;;;;;;32.00;29.25;;;;;-144.76;100.00;60493.00;5054583;28;45073;-91
2021/11/08 00:30:27;;;;;;;;;30.75;27.00;;;;;-144.76;100.00;60493.00;5054552;28;45116;-89
2021/11/08 00:32:52;;;;;;;;;35.75;32.50;;;;;-144.76;100.00;60493.00;5065208;28;45388;-85
2021/11/08 00:35:18;;;;;;;;;27.75;27.00;;;;;-144.76;100.00;60493.00;5073722;28;45866;-90
2021/11/08 00:37:43;;;;;;;;;32.00;30.75;;;;;-144.76;100.00;60493.00;5073291;28;45050;-90
2021/11/08 00:40:09;;;;;;;;;32.50;29.25;;;;;-144.76;100.00;60493.00;5054869;28;45115;-87
2021/11/08 00:42:34;;;;;;;;;32.75;31.50;;;;;-144.76;100.00;60493.00;5073930;28;45166;-89
2021/11/08 00:45:03;;;;;;;;;30.00;27.00;;;;;-144.76;100.00;60493.00;5044812;28;45410;-89
2021/11/08 00:47:29;;;;;;;;;33.00;30.75;;;;;-144.76;100.00;60493.00;5023298;28;45971;-87
2021/11/08 00:49:56;;;;;;;;;33.75;31.25;;;;;-144.76;100.00;60493.00;5040300;28;45492;-86
2021/11/08 00:52:22;;;;;;;;;27.50;26.75;;;;;-144.76;100.00;60493.00;5046271;28;45256;-89
2021/11/08 00:54:48;;;;;;;;;33.50;29.50;;;;;-144.76;100.00;60493.00;5048167;28;45293;-87
2021/11/08 00:57:18;;;;;;;;;28.00;26.50;;;;;-144.76;100.00;60493.00;5056009;28;45384;-84
2021/11/08 00:59:43;;;;;;;;;28.00;26.50;;;;;-144.76;100.00;60493.00;5062642;28;45462;-91
2021/11/08 01:02:09;;;;;;;;;28.33;26.00;;;;;-144.76;100.00;60493.00;5069568;28;45207;-90
2021/11/08 01:04:36;;;;;;;;;38.00;33.75;;;;;-144.76;100.00;60493.00;5067459;28;47194;-88
2021/11/08 01:07:02;;;;;;;;;33.00;30.00;;;;;-144.76;100.00;60493.00;5060429;28;45276;-91
2021/11/08 01:09:30;;;;;;;;;25.75;24.75;;;;;-144.76;100.00;60493.00;5070101;28;45495;-91
2021/11/08 01:11:56;;;;;;;;;29.00;25.00;;;;;-144.76;100.00;60493.00;5071516;28;45247;-85
2021/11/08 01:14:22;;;;;;;;;31.25;28.00;;;;;-144.76;100.00;60493.00;5054507;28;47831;-88
2021/11/08 01:16:54;;;;;;;;;26.50;24.50;;;;;-144.76;100.00;60493.00;5070923;28;45075;-86
2021/11/08 01:19:20;;;;;;;;;24.50;22.75;;;;;-144.76;100.00;60493.00;5071736;28;44974;-89
2021/11/08 01:21:45;;;;;;;;;26.00;24.75;;;;;-144.76;100.00;60493.00;5064530;28;45096;-86
2021/11/08 01:24:11;;;;;;;;;26.25;25.50;;;;;-144.76;100.00;60493.00;5057322;28;48107;-90
2021/11/08 01:26:37;;;;;;;;;31.00;27.75;;;;;-144.76;100.00;60493.00;5057477;28;45494;-89
2021/11/08 01:29:03;;;;;;;;;28.25;25.75;;;;;-144.76;100.00;60493.00;5054200;28;45407;-90
2021/11/08 01:31:29;;;;;;;;;28.00;27.00;;;;;-144.76;100.00;60493.00;5054483;28;45563;-92
2021/11/08 01:33:54;;;;;;;;;29.25;24.75;;;;;-144.76;100.00;60493.00;5056066;28;46590;-86
2021/11/08 01:36:26;;;;;;;;;26.75;24.75;;;;;-144.76;100.00;60493.00;5055507;28;45525;-88
2021/11/08 01:38:59;;;;;;;;;30.00;28.00;;;;;-144.76;100.00;60493.00;5066933;28;45301;-91
2021/11/08 01:41:30;;;;;;;;;29.25;24.50;;;;;-144.76;100.00;60493.00;5070047;28;44974;-88
2021/11/08 01:43:56;;;;;;;;;25.00;23.50;;;;;-144.76;100.00;60493.00;5051192;28;48153;-85
2021/11/08 01:46:21;;;;;;;;;31.00;27.25;;;;;-144.76;100.00;60493.00;5069623;28;45279;-89
2021/11/08 01:48:48;;;;;;;;;27.25;25.75;;;;;-144.76;100.00;60493.00;5063265;28;45302;-89
2021/11/08 01:51:15;;;;;;;;;28.50;26.00;;;;;-144.76;100.00;60493.00;5065129;28;45013;-86
2021/11/08 01:53:41;;;;;;;;;27.75;25.00;;;;;-144.76;100.00;60493.00;5073616;28;46040;-88
2021/11/08 01:56:07;;;;;;;;;26.50;25.00;;;;;-144.76;100.00;60493.00;5075628;28;45132;-90
2021/11/08 01:58:34;;;;;;;;;24.00;22.75;;;;;-144.76;100.00;60493.00;5071664;28;45546;-87
2021/11/08 02:01:01;;;;;;;;;21.00;19.00;;;;;-144.76;100.00;60493.00;5071547;28;45092;-87
2021/11/08 02:03:27;;;;;;;;;26.75;23.75;;;;;-144.76;100.00;60493.00;5057639;28;47126;-89
2021/11/08 02:05:54;;;;;;;;;24.50;22.75;;;;;-144.76;100.00;60493.00;5052629;28;45523;-90
2021/11/08 02:08:21;;;;;;;;;24.25;22.50;;;;;-144.76;100.00;60493.00;5048564;28;45354;-90
2021/11/08 02:10:48;;;;;;;;;27.25;23.25;;;;;-144.76;100.00;60493.00;5037754;28;45117;-89
2021/11/08 02:13:14;;;;;;;;;23.00;19.00;;;;;-144.76;100.00;60493.00;5049442;28;47472;-87
2021/11/08 02:15:39;;;;;;;;;22.50;21.50;;;;;-144.76;100.00;60493.00;5034646;28;46487;-87
2021/11/08 02:18:08;;;;;;;;;22.75;21.75;;;;;-144.76;100.00;60493.00;5054059;28;45485;-87
2021/11/08 02:20:34;;;;;;;;;20.75;20.00;;;;;-144.76;100.00;60493.00;5057803;28;45491;-90
2021/11/08 02:23:04;;;;;;;;;20.00;19.50;;;;;-144.76;100.00;60493.00;5073592;28;47940;-89
2021/11/08 02:25:30;;;;;;;;;24.75;23.75;;;;;-144.76;100.00;60493.00;5041623;28;46004;-88
2021/11/08 02:27:57;;;;;;;;;22.50;22.25;;;;;-144.76;100.00;60493.00;5060570;28;45597;-92
2021/11/08 02:30:27;;;;;;;;;22.00;20.50;;;;;-144.76;100.00;60493.00;5076043;28;45092;-84
2021/11/08 02:32:54;;;;;;;;;21.00;20.50;;;;;-144.76;100.00;60493.00;5075346;28;45261;-90
2021/11/08 02:35:19;;;;;;;;;21.25;20.50;;;;;-144.76;100.00;60493.00;5057357;28;45327;-86
2021/11/08 02:37:46;;;;;;;;;20.00;18.50;;;;;-144.76;100.00;60493.00;5075677;28;44968;-90
2021/11/08 02:40:20;;;;;;;;;19.25;18.25;;;;;-144.76;100.00;60493.00;5045416;28;45621;-91
2021/11/08 02:42:50;;;;;;;;;24.75;21.75;;;;;-144.76;100.00;60493.00;5074073;28;47710;-87
2021/11/08 02:45:18;;;;;;;;;23.75;21.75;;;;;-144.76;100.00;60493.00;5073379;28;45382;-87
2021/11/08 02:47:48;;;;;;;;;19.50;18.00;;;;;-144.76;100.00;60493.00;5074523;28;45190;-87
2021/11/08 02:50:15;;;;;;;;;26.50;23.50;;;;;-144.76;100.00;60493.00;5073789;28;45148;-85
2021/11/08 02:52:41;;;;;;;;;24.00;21.75;;;;;-144.76;100.00;60493.00;5074948;28;45599;-90
2021/11/08 02:55:06;;;;;;;;;25.00;23.50;;;;;-144.76;100.00;60493.00;5056481;28;45451;-85
2021/11/08 02:57:35;;;;;;;;;19.75;18.50;;;;;-144.76;100.00;60493.00;5074596;28;45106;-89
2021/11/08 03:00:04;;;;;;;;;18.00;17.00;;;;;-144.76;100.00;60493.00;5070469;28;45507;-88
2021/11/08 03:02:32;;;;;;;;;21.75;19.75;;;;;-144.76;100.00;60493.00;5063680;28;46101;-86
2021/11/08 03:04:57;;;;;;;;;20.25;18.50;;;;;-144.76;100.00;60493.00;5063113;28;45283;-89
2021/11/08 03:07:26;;;;;;;;;21.75;18.50;;;;;-144.76;100.00;60493.00;5061944;28;45208;-85
2021/11/08 03:09:57;;;;;;;;;20.25;19.00;;;;;-144.76;100.00;60493.00;5061099;28;45323;-85
2021/11/08 03:12:26;;;;;;;;;22.25;19.75;;;;;-144.76;100.00;60493.00;5061590;28;46023;-85
2021/11/08 03:17:34;;;;;;;;;20.75;19.75;;;;;-144.76;100.00;60493.00;5071430;28;45412;-83
2021/11/08 03:20:00;;;;;;;;;19.75;19.25;;;;;-144.76;100.00;60493.00;5059598;28;45326;-88
2021/11/08 03:22:31;;;;;;;;;18.75;17.50;;;;;-144.76;100.00;60493.00;5065389;28;47311;-85
2021/11/08 03:25:00;;;;;;;;;20.50;19.75;;;;;-144.76;100.00;60493.00;5063335;28;45134;-85
2021/11/08 03:29:59;;;;;;;;;20.50;18.75;;;;;-144.76;100.00;60493.00;5069378;28;44939;-84
2021/11/08 03:32:25;;;;;;;;;20.25;18.75;;;;;-144.76;100.00;60493.00;5069570;28;46292;-84
2021/11/08 03:34:57;;;;;;;;;23.75;18.50;;;;;-144.76;100.00;60493.00;5070222;28;45208;-85
2021/11/08 03:37:24;;;;;;;;;19.50;18.50;;;;;-144.76;100.00;60493.00;5057283;28;45474;-85
2021/11/08 03:39:49;;;;;;;;;17.50;15.75;;;;;-144.76;100.00;60493.00;5072314;28;45271;-84
2021/11/08 03:42:16;;;;;;;;;21.75;19.25;;;;;-144.76;100.00;60493.00;5072139;28;45818;-86
2021/11/08 03:44:41;;;;;;;;;18.25;17.00;;;;;-144.76;100.00;60493.00;5072161;28;45761;-88
2021/11/08 03:47:07;;;;;;;;;23.50;19.00;;;;;-144.76;100.00;60493.00;5065361;28;45147;-84
2021/11/08 03:49:33;;;;;;;;;15.75;14.25;;;;;-144.76;100.00;60493.00;5057531;28;45574;-86
2021/11/08 03:52:00;;;;;;;;;14.75;14.00;;;;;-144.76;100.00;60493.00;5058613;28;45876;-88
2021/11/08 03:54:26;;;;;;;;;20.00;15.50;;;;;-144.76;100.00;60493.00;5052471;28;45296;-87
2021/11/08 03:56:52;;;;;;;;;16.50;14.25;;;;;-144.76;100.00;60493.00;5061276;28;45312;-85
2021/11/08 03:59:17;;;;;;;;;17.00;16.75;;;;;-144.76;100.00;60493.00;5062663;28;45262;-86
2021/11/08 04:01:43;;;;;;;;;18.00;14.75;;;;;-144.76;100.00;60493.00;5060009;28;45880;-84
2021/11/08 04:04:08;;;;;;;;;16.50;15.00;;;;;-144.76;100.00;60493.00;5070130;28;45277;-85
2021/11/08 04:06:35;;;;;;;;;21.50;18.75;;;;;-144.76;100.00;60493.00;5053146;28;45151;-85
2021/11/08 04:09:01;;;;;;;;;17.00;16.00;;;;;-144.76;100.00;60493.00;5062870;28;45469;-85
2021/11/08 04:11:28;;;;;;;;;19.25;18.00;;;;;-144.76;100.00;60493.00;5058269;28;45685;-85
2021/11/08 04:13:56;;;;;;;;;17.25;15.50;;;;;-144.76;100.00;60493.00;5036311;28;45697;-85
2021/11/08 04:16:22;;;;;;;;;16.50;14.50;;;;;-144.76;100.00;60493.00;5055857;28;45596;-84
2021/11/08 04:18:51;;;;;;;;;19.25;16.50;;;;;-144.76;100.00;60493.00;5055305;28;45395;-85
2021/11/08 04:21:18;;;;;;;;;20.00;17.50;;;;;-144.76;100.00;60493.00;5053474;28;47189;-84
2021/11/08 04:23:45;;;;;;;;;13.25;13.25;;;;;-144.76;100.00;60493.00;5050648;28;45906;-90
2021/11/08 04:26:13;;;;;;;;;17.25;16.25;;;;;-144.76;100.00;60493.00;5044762;28;45453;-88
2021/11/08 04:28:39;;;;;;;;;17.25;16.50;;;;;-144.76;100.00;60493.00;5041974;28;45941;-87
2021/11/08 04:31:04;;;;;;;;;11.75;11.75;;;;;-144.76;100.00;60493.00;5043056;28;46255;-86
2021/11/08 04:33:36;;;;;;;;;14.00;11.50;;;;;-144.76;100.00;60493.00;5042687;28;45327;-86
2021/11/08 04:41:37;;;;;;;;;16.00;16.00;;;;;-144.76;100.00;60493.00;5050660;28;45699;-85
2021/11/08 04:44:20;;;;;;;;;16.75;13.00;;;;;-144.76;100.00;60493.00;5053230;28;45887;-84
2021/11/08 04:46:58;;;;;;;;;17.75;16.50;;;;;-144.76;100.00;60493.00;5049462;28;45438;-84
2021/11/08 04:49:40;;;;;;;;;16.25;14.25;;;;;-144.76;100.00;60493.00;5043728;28;45910;-85
2021/11/08 04:54:45;;;;;;;;;16.75;16.00;;;;;-144.76;100.00;60493.00;5040504;28;45778;-83
2021/11/08 05:21:47;;;;;;;;;16.25;16.00;;;;;-144.76;100.00;60493.00;5067001;28;45056;-87
2021/11/08 05:32:17;;;;;;;;;13.25;12.75;;;;;-144.76;100.00;60493.00;5070505;28;45398;-86
2021/11/08 05:34:42;;;;;;;;;14.25;13.50;;;;;-144.76;100.00;60493.00;5070596;28;45242;-90
2021/11/08 05:37:08;;;;;;;;;16.00;12.25;;;;;-144.76;100.00;60493.00;5061457;28;45297;-86
2021/11/08 05:39:43;;;;;;;;;16.25;14.50;;;;;-144.76;100.00;60493.00;5058473;28;45191;-89
2021/11/08 05:42:08;;;;;;;;;12.75;12.25;;;;;-144.76;100.00;60493.00;5060574;28;45302;-87
2021/11/08 05:44:37;;;;;;;;;14.00;13.25;;;;;-144.76;100.00;60493.00;5065127;28;47205;-86
2021/11/08 05:47:03;;;;;;;;;15.25;14.00;;;;;-144.76;100.00;60493.00;5065789;28;45470;-85
2021/11/08 05:49:28;;;;;;;;;14.00;14.00;;;;;-144.76;100.00;60493.00;5061777;28;45087;-86
2021/11/08 05:51:54;;;;;;;;;17.50;13.50;;;;;-144.76;100.00;60493.00;5054359;28;45121;-85
2021/11/08 05:54:21;;;;;;;;;14.50;13.00;;;;;-144.76;100.00;60493.00;5051554;28;47290;-86
2021/11/08 05:57:13;;;;;;;;;17.50;15.25;;;;;-144.76;100.00;60493.00;5039648;28;45136;-87
2021/11/08 06:51:36;;;;;;;;;21.25;17.00;;;;;-144.76;100.00;60493.00;5071383;28;45768;-85
2021/11/08 06:54:04;;;;;;;;;16.00;15.25;;;;;-144.76;100.00;60493.00;5061860;28;45202;-86
2021/11/08 06:56:35;;;;;;;;;18.00;16.50;;;;;-144.76;100.00;60493.00;5062741;28;45657;-86
2021/11/08 06:59:03;;;;;;;;;20.75;20.50;;;;;-144.76;100.00;60493.00;5062965;28;45269;-85
2021/11/08 07:01:30;;;;;;;;;16.50;16.00;;;;;-144.76;100.00;60493.00;5061554;28;45305;-85
2021/11/08 07:03:56;;;;;;;;;21.75;18.75;;;;;-144.76;100.00;60493.00;5062650;28;45235;-85
2021/11/08 07:06:22;;;;;;;;;22.00;19.50;;;;;-144.76;100.00;60493.00;5058229;28;45334;-85
2021/11/08 07:08:47;;;;;;;;;18.50;17.75;;;;;-144.76;100.00;60493.00;5056176;28;47199;-86
2021/11/08 07:11:13;;;;;;;;;23.00;22.00;;;;;-144.76;100.00;60493.00;5061433;28;45158;-85
2021/11/08 07:13:38;;;;;;;;;23.00;21.25;;;;;-144.76;100.00;60493.00;5068695;28;45100;-85
2021/11/08 07:16:04;;;;;;;;;22.50;22.25;;;;;-144.76;100.00;60493.00;5072870;28;44918;-85
2021/11/08 07:18:29;;;;;;;;;21.75;21.00;;;;;-144.76;100.00;60493.00;5072493;28;45685;-84
2021/11/08 07:20:55;;;;;;;;;19.75;17.25;;;;;-144.76;100.00;60493.00;5071481;28;45159;-85
2021/11/08 07:23:20;;;;;;;;;23.25;21.25;;;;;-144.76;100.00;60493.00;5054296;28;45538;-86
2021/11/08 07:25:45;;;;;;;;;22.75;20.25;;;;;-144.76;100.00;60493.00;5071162;28;45112;-84
2021/11/08 07:28:14;;;;;;;;;25.00;23.00;;;;;-144.76;100.00;60493.00;5068552;28;47364;-85
2021/11/08 07:30:42;;;;;;;;;24.25;23.50;;;;;-144.76;100.00;60493.00;5062841;28;45365;-86
2021/11/08 07:33:08;;;;;;;;;22.50;21.00;;;;;-144.76;100.00;60493.00;5069137;28;45147;-86
2021/11/08 07:35:34;;;;;;;;;28.00;23.00;;;;;-144.76;100.00;60493.00;5069580;28;45137;-86
2021/11/08 07:38:00;;;;;;;;;18.00;17.75;;;;;-144.76;100.00;60493.00;5067167;28;47149;-86
2021/11/08 07:40:25;;;;;;;;;20.25;19.00;;;;;-144.76;100.00;60493.00;5045831;28;45249;-85
2021/11/08 07:42:51;;;;;;;;;23.25;19.50;;;;;-144.76;100.00;60493.00;5065794;28;45225;-85
2021/11/08 07:45:16;;;;;;;;;20.50;18.75;;;;;-144.76;100.00;60493.00;5070724;28;45166;-86
2021/11/08 07:47:42;;;;;;;;;26.75;22.75;;;;;-144.76;100.00;60493.00;5063113;28;47649;-88
2021/11/08 07:50:08;;;;;;;;;22.50;20.25;;;;;-144.76;100.00;60493.00;5063691;28;45151;-89
2021/11/08 07:52:39;;;;;;;;;21.25;20.00;;;;;-144.76;100.00;60493.00;5042115;28;45232;-91
2021/11/08 07:55:05;;;;;;;;;23.50;21.25;;;;;-144.76;100.00;60493.00;5057570;28;45384;-92
2021/11/08 07:57:30;;;;;;;;;20.50;20.00;;;;;-144.76;100.00;60493.00;5041999;28;47045;-91
2021/11/08 07:59:56;;;;;;;;;23.50;23.00;;;;;-144.76;100.00;60493.00;5046805;28;45218;-87
2021/11/08 08:02:34;;;;;;;;;19.50;19.25;;;;;-144.76;100.00;60493.00;5074673;28;45338;-92
2021/11/08 08:05:02;;;;;;;;;26.75;25.25;;;;;-144.76;100.00;60493.00;5074148;28;45080;-90
2021/11/08 08:07:28;;;;;;;;;23.50;22.75;;;;;-144.76;100.00;60493.00;5059660;28;45634;-86
2021/11/08 08:09:54;;;;;;;;;21.00;19.25;;;;;-144.76;100.00;60493.00;5046626;28;45922;-90
2021/11/08 08:12:20;;;;;;;;;24.50;22.00;;;;;-144.76;100.00;60493.00;5049154;28;45155;-91
2021/11/08 08:14:49;;;;;;;;;23.00;21.50;;;;;-144.76;100.00;60493.00;5068650;28;45324;-87
2021/11/08 08:17:14;;;;;;;;;22.00;21.25;;;;;-144.76;100.00;60493.00;5069907;28;47257;-87
2021/11/08 08:19:40;;;;;;;;;33.75;32.00;;;;;-144.76;100.00;60493.00;5063977;28;45529;-87
2021/11/08 08:22:06;;;;;;;;;28.25;26.25;;;;;-144.76;100.00;60493.00;5067874;28;45667;-86
2021/11/08 08:24:32;;;;;;;;;32.00;31.25;;;;;-144.76;100.00;60493.00;5070332;28;45252;-85
2021/11/08 08:27:03;;;;;;;;;29.75;28.25;;;;;-144.76;100.00;60493.00;5053440;28;47438;-86
2021/11/08 08:29:28;;;;;;;;;29.00;25.25;;;;;-144.76;100.00;60493.00;5065425;28;45085;-84
2021/11/08 08:31:54;;;;;;;;;30.50;28.25;;;;;-144.76;100.00;60493.00;5053635;28;45722;-86
2021/11/08 08:34:19;;;;;;;;;25.25;24.25;;;;;-144.76;100.00;60493.00;5054580;28;45327;-89
2021/11/08 08:36:45;;;;;;;;;25.50;23.00;;;;;-144.76;100.00;60493.00;5047543;28;45689;-90
2021/11/08 08:39:11;;;;;;;;;30.75;28.50;;;;;-144.76;100.00;60493.00;5044960;28;45985;-88
2021/11/08 08:41:38;;;;;;;;;25.00;23.75;;;;;-144.76;100.00;60493.00;5041265;28;46193;-89
2021/11/08 08:44:04;;;;;;;;;30.75;28.50;;;;;-144.76;100.00;60493.00;5043392;28;45433;-89
2021/11/08 08:46:29;;;;;;;;;22.50;20.75;;;;;-144.76;100.00;60493.00;5044559;28;45485;-90
2021/11/08 08:48:56;;;;;;;;;23.75;20.00;;;;;-144.76;100.00;60493.00;5045519;28;45692;-86
2021/11/08 08:51:22;;;;;;;;;22.75;21.00;;;;;-144.76;100.00;60493.00;5023367;28;45375;-85
2021/11/08 08:53:47;;;;;;;;;28.00;25.25;;;;;-144.76;100.00;60493.00;5056771;28;45057;-91
2021/11/08 08:56:17;;;;;;;;;27.25;26.00;;;;;-144.76;100.00;60493.00;5059019;28;47633;-86
2021/11/08 08:58:43;;;;;;;;;32.50;27.75;;;;;-144.76;100.00;60493.00;5023862;28;45405;-87
2021/11/08 09:01:08;;;;;;;;;26.25;24.75;;;;;-144.76;100.00;60493.00;5039381;28;45623;-83
2021/11/08 09:03:34;;;;;;;;;31.00;24.50;;;;;-144.76;100.00;60493.00;5037232;28;45766;-84
2021/11/08 09:06:00;;;;;;;;;167.00;152.25;;;;;-144.76;100.00;60493.00;5022515;28;46968;-85
2021/11/08 09:08:25;;;;;;;;;156.50;140.75;;;;;-144.76;100.00;60493.00;5018345;28;45452;-86
2021/11/08 09:10:51;;;;;;;;;122.67;112.67;;;;;-144.76;100.00;60493.00;5046179;28;45331;-84
2021/11/08 09:13:16;;;;;;;;;148.25;129.25;;;;;-144.76;100.00;60493.00;5058853;28;45239;-89
2021/11/08 09:15:42;;;;;;;;;32.75;29.75;;;;;-144.76;100.00;60493.00;5025597;28;47005;-84
2021/11/08 09:18:10;;;;;;;;;22.75;22.50;;;;;-144.76;100.00;60493.00;5029094;28;45536;-85
2021/11/08 09:20:41;;;;;;;;;537.00;427.67;;;;;-144.76;100.00;60493.00;5046977;28;45587;-85
2021/11/08 09:23:07;;;;;;;;;113.25;97.00;;;;;-144.76;100.00;60493.00;5047620;28;45195;-88
2021/11/08 09:25:33;;;;;;;;;59.50;47.50;;;;;-144.76;100.00;60493.00;5028939;28;47848;-85
2021/11/08 09:28:05;;;;;;;;;104.50;88.75;;;;;-144.76;100.00;60493.00;5023753;28;45447;-86
2021/11/08 09:30:34;;;;;;;;;89.00;71.00;;;;;-144.76;100.00;60493.00;5037857;28;45434;-86
2021/11/08 09:33:00;;;;;;;;;63.25;51.75;;;;;-144.76;100.00;60493.00;5040713;28;45383;-85
2021/11/08 09:35:36;;;;;;;;;48.00;39.75;;;;;-144.76;100.00;60493.00;5027495;28;45618;-85
2021/11/08 09:38:05;;;;;;;;;28.00;26.00;;;;;-144.76;100.00;60493.00;5028156;28;45964;-85
2021/11/08 09:40:32;;;;;;;;;46.75;40.75;;;;;-144.76;100.00;60493.00;5037442;28;45493;-85
2021/11/08 09:42:58;;;;;;;;;26.75;23.75;;;;;-144.76;100.00;60493.00;5021598;28;45412;-85
2021/11/08 09:45:24;;;;;;;;;57.25;46.50;;;;;-144.76;100.00;60493.00;5044001;28;45710;-85
2021/11/08 09:47:50;;;;;;;;;25.00;22.00;;;;;-144.76;100.00;60493.00;5049344;28;45538;-84
2021/11/08 09:50:25;;;;;;;;;80.50;63.75;;;;;-144.76;100.00;60493.00;5047938;28;45339;-86
2021/11/08 09:52:51;;;;;;;;;43.00;35.50;;;;;-144.76;100.00;60493.00;5036874;28;45553;-85
2021/11/08 09:55:20;;;;;;;;;20.00;16.50;;;;;-144.76;100.00;60493.00;5011737;28;47801;-85
2021/11/08 09:57:47;;;;;;;;;27.25;26.50;;;;;-144.76;100.00;60493.00;5022673;28;45540;-84
2021/11/08 10:00:21;;;;;;;;;25.25;18.25;;;;;-144.76;100.00;60493.00;5017348;28;45615;-85
2021/11/08 10:02:57;;;;;;;;;17.50;16.50;;;;;-144.76;100.00;60493.00;5013889;28;45873;-83
2021/11/08 10:05:27;;;;;;;;;16.75;16.00;;;;;-144.76;100.00;60493.00;5030236;28;45593;-86
2021/11/08 10:07:52;;;;;;;;;72.50;57.50;;;;;-144.76;100.00;60493.00;5014871;28;45677;-84
2021/11/08 10:10:19;;;;;;;;;19.25;18.50;;;;;-144.76;100.00;60493.00;5052030;28;45381;-85
2021/11/08 10:12:49;;;;;;;;;96.75;89.00;;;;;-144.76;100.00;60493.00;5049347;28;45359;-83
2021/11/08 10:15:14;;;;;;;;;71.25;56.75;;;;;-144.76;100.00;60493.00;5016500;28;47284;-85
2021/11/08 10:17:40;;;;;;;;;25.00;24.00;;;;;-144.76;100.00;60493.00;5017232;28;45503;-89
2021/11/08 10:20:06;;;;;;;;;22.00;20.25;;;;;-144.76;100.00;60493.00;5036204;28;45732;-86
2021/11/08 10:22:32;;;;;;;;;18.75;16.50;;;;;-144.76;100.00;60493.00;5019006;28;45814;-87
2021/11/08 10:25:00;;;;;;;;;22.00;20.25;;;;;-144.76;100.00;60493.00;5028840;28;46543;-87
2021/11/08 10:27:44;;;;;;;;;21.75;19.00;;;;;-144.76;100.00;60493.00;5038401;28;45286;-90
2021/11/08 10:30:24;;;;;;;;;20.25;18.25;;;;;-144.76;100.00;60493.00;5022481;28;45486;-87
2021/11/08 10:33:05;;;;;;;;;23.25;19.75;;;;;-144.76;100.00;60493.00;5043023;28;45478;-87
2021/11/08 10:35:39;;;;;;;;;15.00;13.75;;;;;-144.76;100.00;60493.00;5041859;28;46479;-86
2021/11/08 10:38:26;;;;;;;;;17.00;16.00;;;;;-144.76;100.00;60493.00;5014944;28;45510;-85
2021/11/08 10:40:56;;;;;;;;;17.75;16.00;;;;;-144.76;100.00;60493.00;5033953;28;45486;-86
2021/11/08 10:43:30;;;;;;;;;15.75;14.75;;;;;-144.76;100.00;60493.00;5006762;28;45466;-88
2021/11/08 10:46:00;;;;;;;;;4.75;4.25;;;;;-144.76;100.00;60493.00;5033351;28;45419;-86
2021/11/08 10:48:30;;;;;;;;;14.00;11.25;;;;;-144.76;100.00;60493.00;5025396;28;45340;-87
2021/11/08 10:51:08;;;;;;;;;7.00;7.00;;;;;-144.76;100.00;60493.00;5005448;28;45509;-91
2021/11/08 10:53:49;;;;;;;;;6.25;6.25;;;;;-144.76;100.00;60493.00;5024643;28;45557;-85
2021/11/08 10:56:24;;;;;;;;;9.00;7.25;;;;;-144.76;100.00;60493.00;5043948;28;46264;-87
2021/11/08 10:58:50;;;;;;;;;9.50;9.00;;;;;-144.76;100.00;60493.00;5030247;28;46019;-87
2021/11/08 11:01:32;;;;;;;;;9.50;8.25;;;;;-144.76;100.00;60493.00;5027693;28;45422;-88
2021/11/08 11:04:00;;;;;;;;;4.75;3.00;;;;;-144.76;100.00;60493.00;5036372;28;45576;-88
2021/11/08 11:06:47;;;;;;;;;5.50;5.25;;;;;-144.76;100.00;60493.00;5018269;28;47333;-87
2021/11/08 11:09:20;;;;;;;;;5.25;4.25;;;;;-144.76;100.00;60493.00;5041536;28;45640;-87
2021/11/08 11:11:48;;;;;;;;;8.75;5.25;;;;;-144.76;100.00;60493.00;5050184;28;45457;-87
2021/11/08 11:14:15;;;;;;;;;7.75;5.00;;;;;-144.76;100.00;60493.00;5047861;28;45409;-89
2021/11/08 11:16:47;;;;;;;;;7.75;5.00;;;;;-144.76;100.00;60493.00;5032904;28;46503;-87
2021/11/08 11:19:15;;;;;;;;;3.00;2.50;;;;;-144.76;100.00;60493.00;5027906;28;45596;-88
2021/11/08 11:21:58;;;;;;;;;8.00;7.75;;;;;-144.76;100.00;60493.00;5029030;28;45926;-89
2021/11/08 11:24:42;;;;;;;;;18.50;18.50;;;;;-144.76;100.00;60493.00;5017524;28;45543;-85
2021/11/08 11:27:16;;;;;;;;;15.75;11.50;;;;;-144.76;100.00;60493.00;5030840;28;47344;-88
2021/11/08 11:29:43;;;;;;;;;4.00;4.00;;;;;-144.76;100.00;60493.00;5025853;28;45579;-84
2021/11/08 11:32:24;;;;;;;;;1.00;1.00;;;;;-144.76;100.00;60493.00;5040088;28;45455;-87
2021/11/08 11:34:51;;;;;;;;;2.75;2.00;;;;;-144.76;100.00;60493.00;5035322;28;45838;-86
2021/11/08 11:37:19;;;;;;;;;3.00;2.50;;;;;-144.76;100.00;60493.00;5021745;28;47218;-88
2021/11/08 11:39:45;;;;;;;;;3.00;2.00;;;;;-144.76;100.00;60493.00;5044067;28;45547;-85
2021/11/08 11:42:11;;;;;;;;;3.00;3.00;;;;;-144.76;100.00;60493.00;5040343;28;45597;-87
2021/11/08 11:44:38;;;;;;;;;2.00;2.00;;;;;-144.76;100.00;60493.00;5017356;28;45447;-86
2021/11/08 11:47:13;;;;;;;;;5.25;3.50;;;;;-144.76;100.00;60493.00;5039178;28;46217;-87
2021/11/08 11:49:45;;;;;;;;;8.75;5.00;;;;;-144.76;100.00;60493.00;5039766;28;45991;-86
2021/11/08 11:52:11;;;;;;;;;5.50;5.25;;;;;-144.76;100.00;60493.00;5052595;28;45899;-87
2021/11/08 11:54:38;;;;;;;;;4.00;3.00;;;;;-144.76;100.00;60493.00;5045272;28;45569;-87
2021/11/08 11:57:04;;;;;;;;;2.25;2.25;;;;;-144.76;100.00;60493.00;5026555;28;48184;-86
2021/11/08 11:59:30;;;;;;;;;5.00;4.00;;;;;-144.76;100.00;60493.00;5033824;28;45927;-87
2021/11/08 12:01:55;;;;;;;;;7.25;5.75;;;;;-144.76;100.00;60493.00;5044945;28;45477;-86
2021/11/08 12:04:21;;;;;;;;;4.50;4.00;;;;;-144.76;100.00;60493.00;5016043;28;45574;-86
2021/11/08 12:06:49;;;;;;;;;4.00;4.00;;;;;-144.76;100.00;60493.00;5049677;28;45497;-86
2021/11/08 12:09:17;;;;;;;;;9.00;6.00;;;;;-144.76;100.00;60493.00;5036403;28;45813;-85
2021/11/08 12:11:46;;;;;;;;;4.50;4.50;;;;;-144.76;100.00;60493.00;5054488;28;45395;-86
2021/11/08 12:14:17;;;;;;;;;3.75;3.75;;;;;-144.76;100.00;60493.00;5036121;28;45630;-85
2021/11/08 12:17:03;;;;;;;;;2.00;1.50;;;;;-144.76;100.00;60493.00;5036144;28;47021;-85
2021/11/08 12:19:35;;;;;;;;;4.25;3.75;;;;;-144.76;100.00;60493.00;5035807;28;46164;-87
2021/11/08 12:22:14;;;;;;;;;4.00;4.00;;;;;-144.76;100.00;60493.00;5057940;28;45429;-88
2021/11/08 12:24:40;;;;;;;;;4.25;3.25;;;;;-144.76;100.00;60493.00;5055768;28;45364;-88
2021/11/08 12:27:09;;;;;;;;;3.75;3.75;;;;;-144.76;100.00;60493.00;5050419;28;47525;-86
2021/11/08 12:29:49;;;;;;;;;4.75;4.00;;;;;-144.76;100.00;60493.00;5051531;28;46031;-90
2021/11/08 12:32:15;;;;;;;;;3.00;3.00;;;;;-144.76;100.00;60493.00;5041138;28;45605;-85
2021/11/08 12:34:47;;;;;;;;;3.25;2.00;;;;;-144.76;100.00;60493.00;5040325;28;45533;-85
2021/11/08 12:37:14;;;;;;;;;3.00;3.00;;;;;-144.76;100.00;60493.00;5034240;28;46325;-86
2021/11/08 12:39:41;;;;;;;;;2.50;2.50;;;;;-144.76;100.00;60493.00;5033544;28;45874;-87